sensor_id;sensor_type;location;lat;lon;timestamp;P1;durP1;ratioP1;P2;durP2;ratioP2
29774;SDS011;16676;51.202;6.774;2023-01-24T00:01:31;5.55;;;3.83;;
29774;SDS011;16676;51.202;6.774;2023-01-24T00:05:32;5.50;;;3.67;;
29774;SDS011;16676;51.202;6.774;2023-01-24T00:09:34;5.18;;;3.72;;
29774;SDS011;16676;51.202;6.774;2023-01-24T00:13:37;4.72;;;3.60;;
29774;SDS011;16676;51.202;6.774;2023-01-24T00:17:41;6.50;;;4.32;;
29774;SDS011;16676;51.202;6.774;2023-01-24T00:21:43;6.63;;;4.05;;
29774;SDS011;16676;51.202;6.774;2023-01-24T00:25:44;7.95;;;3.70;;
29774;SDS011;16676;51.202;6.774;2023-01-24T00:29:46;4.93;;;3.80;;
29774;SDS011;16676;51.202;6.774;2023-01-24T00:33:50;6.00;;;4.00;;
29774;SDS011;16676;51.202;6.774;2023-01-24T00:37:51;5.50;;;3.78;;
29774;SDS011;16676;51.202;6.774;2023-01-24T00:41:54;5.70;;;3.92;;
29774;SDS011;16676;51.202;6.774;2023-01-24T00:45:55;6.35;;;3.88;;
29774;SDS011;16676;51.202;6.774;2023-01-24T00:49:59;5.88;;;3.78;;
29774;SDS011;16676;51.202;6.774;2023-01-24T00:54:01;5.45;;;3.92;;
29774;SDS011;16676;51.202;6.774;2023-01-24T00:58:03;6.35;;;3.78;;
29774;SDS011;16676;51.202;6.774;2023-01-24T01:02:05;5.22;;;3.30;;
29774;SDS011;16676;51.202;6.774;2023-01-24T01:06:11;7.35;;;3.95;;
29774;SDS011;16676;51.202;6.774;2023-01-24T01:10:14;4.97;;;3.40;;
29774;SDS011;16676;51.202;6.774;2023-01-24T01:14:16;5.25;;;3.60;;
29774;SDS011;16676;51.202;6.774;2023-01-24T01:18:18;7.72;;;4.15;;
29774;SDS011;16676;51.202;6.774;2023-01-24T01:22:21;7.82;;;3.95;;
29774;SDS011;16676;51.202;6.774;2023-01-24T01:26:23;4.88;;;3.85;;
29774;SDS011;16676;51.202;6.774;2023-01-24T01:30:25;5.30;;;3.50;;
29774;SDS011;16676;51.202;6.774;2023-01-24T01:34:27;6.55;;;4.07;;
29774;SDS011;16676;51.202;6.774;2023-01-24T01:38:30;4.55;;;3.42;;
29774;SDS011;16676;51.202;6.774;2023-01-24T01:46:50;5.55;;;4.28;;
29774;SDS011;16676;51.202;6.774;2023-01-24T01:50:55;4.53;;;3.33;;
29774;SDS011;16676;51.202;6.774;2023-01-24T01:55:04;6.72;;;3.90;;
29774;SDS011;16676;51.202;6.774;2023-01-24T01:59:14;6.50;;;3.75;;
29774;SDS011;16676;51.202;6.774;2023-01-24T02:03:21;4.75;;;3.42;;
29774;SDS011;16676;51.202;6.774;2023-01-24T02:07:42;5.10;;;3.55;;
29774;SDS011;16676;51.202;6.774;2023-01-24T02:11:49;4.07;;;3.10;;
29774;SDS011;16676;51.202;6.774;2023-01-24T02:15:53;5.10;;;3.55;;
29774;SDS011;16676;51.202;6.774;2023-01-24T02:20:12;4.63;;;3.40;;
29774;SDS011;16676;51.202;6.774;2023-01-24T02:24:25;4.97;;;3.63;;
29774;SDS011;16676;51.202;6.774;2023-01-24T02:28:35;4.93;;;3.50;;
29774;SDS011;16676;51.202;6.774;2023-01-24T02:32:38;4.53;;;3.42;;
29774;SDS011;16676;51.202;6.774;2023-01-24T02:36:40;4.75;;;3.60;;
29774;SDS011;16676;51.202;6.774;2023-01-24T02:40:42;6.25;;;4.15;;
29774;SDS011;16676;51.202;6.774;2023-01-24T02:44:48;5.30;;;3.28;;
29774;SDS011;16676;51.202;6.774;2023-01-24T02:48:54;4.97;;;3.55;;
29774;SDS011;16676;51.202;6.774;2023-01-24T02:52:55;4.15;;;3.35;;
29774;SDS011;16676;51.202;6.774;2023-01-24T02:57:15;5.57;;;3.63;;
29774;SDS011;16676;51.202;6.774;2023-01-24T03:01:35;5.65;;;3.75;;
29774;SDS011;16676;51.202;6.774;2023-01-24T03:05:37;4.55;;;3.35;;
29774;SDS011;16676;51.202;6.774;2023-01-24T03:09:56;5.60;;;3.30;;
29774;SDS011;16676;51.202;6.774;2023-01-24T03:13:58;5.03;;;3.35;;
29774;SDS011;16676;51.202;6.774;2023-01-24T03:18:19;4.28;;;3.38;;
29774;SDS011;16676;51.202;6.774;2023-01-24T03:22:38;5.13;;;3.72;;
29774;SDS011;16676;51.202;6.774;2023-01-24T03:26:58;4.30;;;3.40;;
29774;SDS011;16676;51.202;6.774;2023-01-24T03:31:18;5.35;;;3.55;;
29774;SDS011;16676;51.202;6.774;2023-01-24T03:35:38;6.32;;;3.50;;
29774;SDS011;16676;51.202;6.774;2023-01-24T03:39:40;5.65;;;3.40;;
29774;SDS011;16676;51.202;6.774;2023-01-24T03:43:58;3.97;;;3.10;;
29774;SDS011;16676;51.202;6.774;2023-01-24T03:48:01;5.22;;;3.28;;
29774;SDS011;16676;51.202;6.774;2023-01-24T03:52:05;4.13;;;3.03;;
29774;SDS011;16676;51.202;6.774;2023-01-24T03:56:25;5.00;;;3.50;;
29774;SDS011;16676;51.202;6.774;2023-01-24T04:00:27;4.53;;;3.50;;
29774;SDS011;16676;51.202;6.774;2023-01-24T04:04:29;5.40;;;3.53;;
29774;SDS011;16676;51.202;6.774;2023-01-24T04:08:53;4.15;;;3.42;;
29774;SDS011;16676;51.202;6.774;2023-01-24T04:12:55;5.40;;;3.50;;
29774;SDS011;16676;51.202;6.774;2023-01-24T04:16:57;3.90;;;2.80;;
29774;SDS011;16676;51.202;6.774;2023-01-24T04:21:00;4.07;;;3.17;;
29774;SDS011;16676;51.202;6.774;2023-01-24T04:25:04;4.38;;;3.13;;
29774;SDS011;16676;51.202;6.774;2023-01-24T04:29:07;5.18;;;3.30;;
29774;SDS011;16676;51.202;6.774;2023-01-24T04:33:09;5.55;;;2.83;;
29774;SDS011;16676;51.202;6.774;2023-01-24T04:37:10;3.50;;;2.85;;
29774;SDS011;16676;51.202;6.774;2023-01-24T04:41:14;5.55;;;3.10;;
29774;SDS011;16676;51.202;6.774;2023-01-24T04:45:16;4.05;;;2.95;;
29774;SDS011;16676;51.202;6.774;2023-01-24T04:49:18;4.30;;;3.20;;
29774;SDS011;16676;51.202;6.774;2023-01-24T04:53:20;4.20;;;3.22;;
29774;SDS011;16676;51.202;6.774;2023-01-24T04:57:23;4.18;;;3.10;;
29774;SDS011;16676;51.202;6.774;2023-01-24T05:01:25;3.53;;;2.70;;
29774;SDS011;16676;51.202;6.774;2023-01-24T05:05:27;3.70;;;3.13;;
29774;SDS011;16676;51.202;6.774;2023-01-24T05:09:28;3.63;;;2.92;;
29774;SDS011;16676;51.202;6.774;2023-01-24T05:13:32;4.30;;;3.30;;
29774;SDS011;16676;51.202;6.774;2023-01-24T05:17:34;4.63;;;3.13;;
29774;SDS011;16676;51.202;6.774;2023-01-24T05:21:35;4.40;;;2.95;;
29774;SDS011;16676;51.202;6.774;2023-01-24T05:25:38;4.68;;;2.90;;
29774;SDS011;16676;51.202;6.774;2023-01-24T05:29:41;3.10;;;2.70;;
29774;SDS011;16676;51.202;6.774;2023-01-24T05:33:43;3.80;;;2.90;;
29774;SDS011;16676;51.202;6.774;2023-01-24T05:37:45;4.30;;;3.30;;
29774;SDS011;16676;51.202;6.774;2023-01-24T05:41:47;4.65;;;2.55;;
29774;SDS011;16676;51.202;6.774;2023-01-24T05:45:50;4.28;;;3.08;;
29774;SDS011;16676;51.202;6.774;2023-01-24T05:49:52;5.15;;;2.55;;
29774;SDS011;16676;51.202;6.774;2023-01-24T05:53:54;5.82;;;2.95;;
29774;SDS011;16676;51.202;6.774;2023-01-24T05:57:57;11.27;;;2.92;;
29774;SDS011;16676;51.202;6.774;2023-01-24T06:02:01;5.25;;;2.80;;
29774;SDS011;16676;51.202;6.774;2023-01-24T06:06:03;6.50;;;3.05;;
29774;SDS011;16676;51.202;6.774;2023-01-24T06:10:06;4.72;;;3.03;;
29774;SDS011;16676;51.202;6.774;2023-01-24T06:14:09;7.95;;;2.55;;
29774;SDS011;16676;51.202;6.774;2023-01-24T06:18:13;7.50;;;2.75;;
29774;SDS011;16676;51.202;6.774;2023-01-24T06:22:20;4.35;;;2.72;;
29774;SDS011;16676;51.202;6.774;2023-01-24T06:26:26;4.55;;;2.60;;
29774;SDS011;16676;51.202;6.774;2023-01-24T06:30:29;4.93;;;2.83;;
29774;SDS011;16676;51.202;6.774;2023-01-24T06:34:34;5.22;;;2.72;;
29774;SDS011;16676;51.202;6.774;2023-01-24T06:38:54;5.40;;;2.63;;
29774;SDS011;16676;51.202;6.774;2023-01-24T06:42:58;5.72;;;2.45;;
29774;SDS011;16676;51.202;6.774;2023-01-24T06:47:00;3.70;;;2.50;;
29774;SDS011;16676;51.202;6.774;2023-01-24T06:51:03;3.70;;;2.70;;
29774;SDS011;16676;51.202;6.774;2023-01-24T06:55:06;4.35;;;2.72;;
29774;SDS011;16676;51.202;6.774;2023-01-24T06:59:09;4.15;;;2.53;;
29774;SDS011;16676;51.202;6.774;2023-01-24T07:03:10;4.20;;;2.90;;
29774;SDS011;16676;51.202;6.774;2023-01-24T07:07:14;3.08;;;2.33;;
29774;SDS011;16676;51.202;6.774;2023-01-24T07:11:16;3.25;;;2.40;;
29774;SDS011;16676;51.202;6.774;2023-01-24T07:15:18;3.75;;;2.55;;
29774;SDS011;16676;51.202;6.774;2023-01-24T07:19:20;3.88;;;2.35;;
29774;SDS011;16676;51.202;6.774;2023-01-24T07:23:25;5.47;;;2.72;;
29774;SDS011;16676;51.202;6.774;2023-01-24T07:27:28;4.00;;;2.40;;
29774;SDS011;16676;51.202;6.774;2023-01-24T07:31:30;3.10;;;2.25;;
29774;SDS011;16676;51.202;6.774;2023-01-24T07:35:32;2.92;;;2.08;;
29774;SDS011;16676;51.202;6.774;2023-01-24T07:39:35;12.60;;;5.70;;
29774;SDS011;16676;51.202;6.774;2023-01-24T07:43:37;11.05;;;5.20;;
29774;SDS011;16676;51.202;6.774;2023-01-24T07:47:39;8.18;;;4.63;;
29774;SDS011;16676;51.202;6.774;2023-01-24T07:51:41;6.70;;;4.65;;
29774;SDS011;16676;51.202;6.774;2023-01-24T07:55:46;17.88;;;4.28;;
29774;SDS011;16676;51.202;6.774;2023-01-24T07:59:48;18.50;;;4.63;;
29774;SDS011;16676;51.202;6.774;2023-01-24T08:03:53;15.43;;;4.18;;
29774;SDS011;16676;51.202;6.774;2023-01-24T08:07:56;8.25;;;4.05;;
29774;SDS011;16676;51.202;6.774;2023-01-24T08:11:59;7.55;;;4.05;;
29774;SDS011;16676;51.202;6.774;2023-01-24T08:16:03;7.55;;;4.38;;
29774;SDS011;16676;51.202;6.774;2023-01-24T08:20:06;9.07;;;4.53;;
29774;SDS011;16676;51.202;6.774;2023-01-24T08:24:09;7.30;;;4.35;;
29774;SDS011;16676;51.202;6.774;2023-01-24T08:28:12;9.82;;;4.35;;
29774;SDS011;16676;51.202;6.774;2023-01-24T08:32:14;9.35;;;4.20;;
29774;SDS011;16676;51.202;6.774;2023-01-24T08:36:16;7.43;;;4.07;;
29774;SDS011;16676;51.202;6.774;2023-01-24T08:40:19;11.15;;;3.95;;
29774;SDS011;16676;51.202;6.774;2023-01-24T08:44:22;7.18;;;3.85;;
29774;SDS011;16676;51.202;6.774;2023-01-24T08:48:24;3.92;;;3.50;;
29774;SDS011;16676;51.202;6.774;2023-01-24T08:52:29;4.70;;;3.53;;
29774;SDS011;16676;51.202;6.774;2023-01-24T08:56:31;6.40;;;3.65;;
29774;SDS011;16676;51.202;6.774;2023-01-24T09:00:35;9.85;;;3.55;;
29774;SDS011;16676;51.202;6.774;2023-01-24T09:04:37;5.70;;;3.08;;
29774;SDS011;16676;51.202;6.774;2023-01-24T09:08:39;11.30;;;3.22;;
29774;SDS011;16676;51.202;6.774;2023-01-24T09:12:41;8.32;;;3.47;;
29774;SDS011;16676;51.202;6.774;2023-01-24T09:16:44;6.97;;;3.10;;
29774;SDS011;16676;51.202;6.774;2023-01-24T09:20:46;9.00;;;3.22;;
29774;SDS011;16676;51.202;6.774;2023-01-24T09:24:48;7.70;;;3.35;;
29774;SDS011;16676;51.202;6.774;2023-01-24T09:28:50;6.25;;;2.60;;
29774;SDS011;16676;51.202;6.774;2023-01-24T09:32:53;8.50;;;2.70;;
29774;SDS011;16676;51.202;6.774;2023-01-24T09:36:55;8.60;;;2.90;;
29774;SDS011;16676;51.202;6.774;2023-01-24T09:41:00;7.30;;;2.75;;
29774;SDS011;16676;51.202;6.774;2023-01-24T09:45:12;2.78;;;2.30;;
29774;SDS011;16676;51.202;6.774;2023-01-24T09:49:22;3.22;;;2.28;;
29774;SDS011;16676;51.202;6.774;2023-01-24T09:53:34;4.60;;;2.33;;
29774;SDS011;16676;51.202;6.774;2023-01-24T09:57:47;4.70;;;2.22;;
29774;SDS011;16676;51.202;6.774;2023-01-24T10:01:53;3.45;;;2.00;;
29774;SDS011;16676;51.202;6.774;2023-01-24T10:05:57;3.53;;;2.38;;
29774;SDS011;16676;51.202;6.774;2023-01-24T10:10:11;7.78;;;2.60;;
29774;SDS011;16676;51.202;6.774;2023-01-24T10:14:33;5.30;;;2.20;;
29774;SDS011;16676;51.202;6.774;2023-01-24T10:18:46;5.13;;;2.20;;
29774;SDS011;16676;51.202;6.774;2023-01-24T10:23:02;4.93;;;2.20;;
29774;SDS011;16676;51.202;6.774;2023-01-24T10:27:13;9.60;;;2.25;;
29774;SDS011;16676;51.202;6.774;2023-01-24T10:31:22;10.63;;;2.08;;
29774;SDS011;16676;51.202;6.774;2023-01-24T10:35:29;2.72;;;1.75;;
29774;SDS011;16676;51.202;6.774;2023-01-24T10:39:35;7.22;;;1.80;;
29774;SDS011;16676;51.202;6.774;2023-01-24T10:43:38;2.63;;;1.80;;
29774;SDS011;16676;51.202;6.774;2023-01-24T10:47:42;3.55;;;1.85;;
29774;SDS011;16676;51.202;6.774;2023-01-24T10:56:16;5.50;;;1.90;;
29774;SDS011;16676;51.202;6.774;2023-01-24T11:00:23;4.78;;;1.70;;
29774;SDS011;16676;51.202;6.774;2023-01-24T11:04:33;3.30;;;1.83;;
29774;SDS011;16676;51.202;6.774;2023-01-24T11:08:35;3.58;;;1.75;;
29774;SDS011;16676;51.202;6.774;2023-01-24T11:12:42;5.18;;;1.58;;
29774;SDS011;16676;51.202;6.774;2023-01-24T11:16:49;1.77;;;1.60;;
29774;SDS011;16676;51.202;6.774;2023-01-24T11:21:03;4.57;;;1.75;;
29774;SDS011;16676;51.202;6.774;2023-01-24T11:29:16;2.20;;;1.73;;
29774;SDS011;16676;51.202;6.774;2023-01-24T11:33:23;6.95;;;1.67;;
29774;SDS011;16676;51.202;6.774;2023-01-24T11:37:49;3.70;;;1.52;;
29774;SDS011;16676;51.202;6.774;2023-01-24T11:42:20;4.03;;;1.58;;
29774;SDS011;16676;51.202;6.774;2023-01-24T11:46:36;1.77;;;1.40;;
29774;SDS011;16676;51.202;6.774;2023-01-24T11:50:50;5.82;;;1.55;;
29774;SDS011;16676;51.202;6.774;2023-01-24T11:55:01;4.47;;;1.70;;
29774;SDS011;16676;51.202;6.774;2023-01-24T11:59:19;2.72;;;1.50;;
29774;SDS011;16676;51.202;6.774;2023-01-24T12:03:37;2.05;;;1.30;;
29774;SDS011;16676;51.202;6.774;2023-01-24T12:08:06;2.42;;;1.70;;
29774;SDS011;16676;51.202;6.774;2023-01-24T12:12:32;3.97;;;1.33;;
29774;SDS011;16676;51.202;6.774;2023-01-24T12:16:41;4.03;;;1.45;;
29774;SDS011;16676;51.202;6.774;2023-01-24T12:20:58;2.95;;;1.20;;
29774;SDS011;16676;51.202;6.774;2023-01-24T12:25:05;7.82;;;2.00;;
29774;SDS011;16676;51.202;6.774;2023-01-24T12:29:18;4.70;;;1.70;;
29774;SDS011;16676;51.202;6.774;2023-01-24T12:33:25;2.83;;;1.20;;
29774;SDS011;16676;51.202;6.774;2023-01-24T12:37:35;2.33;;;1.48;;
29774;SDS011;16676;51.202;6.774;2023-01-24T12:41:43;3.25;;;1.40;;
29774;SDS011;16676;51.202;6.774;2023-01-24T12:45:52;5.40;;;1.40;;
29774;SDS011;16676;51.202;6.774;2023-01-24T12:50:03;1.90;;;1.10;;
29774;SDS011;16676;51.202;6.774;2023-01-24T12:54:17;2.42;;;1.30;;
29774;SDS011;16676;51.202;6.774;2023-01-24T12:58:21;3.28;;;1.50;;
29774;SDS011;16676;51.202;6.774;2023-01-24T13:07:01;2.13;;;1.15;;
29774;SDS011;16676;51.202;6.774;2023-01-24T13:11:14;5.20;;;1.20;;
29774;SDS011;16676;51.202;6.774;2023-01-24T13:15:20;3.70;;;1.38;;
29774;SDS011;16676;51.202;6.774;2023-01-24T13:19:28;2.63;;;1.10;;
29774;SDS011;16676;51.202;6.774;2023-01-24T13:23:41;3.90;;;1.38;;
29774;SDS011;16676;51.202;6.774;2023-01-24T13:27:57;3.30;;;1.38;;
29774;SDS011;16676;51.202;6.774;2023-01-24T13:32:10;1.45;;;1.20;;
29774;SDS011;16676;51.202;6.774;2023-01-24T13:36:15;3.65;;;1.40;;
29774;SDS011;16676;51.202;6.774;2023-01-24T13:40:24;1.63;;;1.15;;
29774;SDS011;16676;51.202;6.774;2023-01-24T13:44:30;3.08;;;1.20;;
29774;SDS011;16676;51.202;6.774;2023-01-24T13:48:46;7.65;;;1.40;;
29774;SDS011;16676;51.202;6.774;2023-01-24T13:52:55;2.70;;;1.45;;
29774;SDS011;16676;51.202;6.774;2023-01-24T13:57:17;1.95;;;1.50;;
29774;SDS011;16676;51.202;6.774;2023-01-24T14:01:24;1.88;;;1.45;;
29774;SDS011;16676;51.202;6.774;2023-01-24T14:09:57;3.70;;;1.50;;
29774;SDS011;16676;51.202;6.774;2023-01-24T14:14:01;2.88;;;1.10;;
29774;SDS011;16676;51.202;6.774;2023-01-24T14:18:42;2.20;;;1.55;;
29774;SDS011;16676;51.202;6.774;2023-01-24T14:22:50;2.05;;;1.42;;
29774;SDS011;16676;51.202;6.774;2023-01-24T14:26:55;2.45;;;1.50;;
29774;SDS011;16676;51.202;6.774;2023-01-24T14:30:59;1.83;;;1.48;;
29774;SDS011;16676;51.202;6.774;2023-01-24T14:35:12;2.80;;;1.40;;
29774;SDS011;16676;51.202;6.774;2023-01-24T14:39:20;2.58;;;1.20;;
29774;SDS011;16676;51.202;6.774;2023-01-24T14:43:24;3.72;;;1.40;;
29774;SDS011;16676;51.202;6.774;2023-01-24T14:47:34;1.50;;;1.30;;
29774;SDS011;16676;51.202;6.774;2023-01-24T14:51:38;1.33;;;1.13;;
29774;SDS011;16676;51.202;6.774;2023-01-24T14:55:45;1.63;;;1.17;;
29774;SDS011;16676;51.202;6.774;2023-01-24T14:59:57;4.43;;;1.15;;
29774;SDS011;16676;51.202;6.774;2023-01-24T15:04:00;2.08;;;1.20;;
29774;SDS011;16676;51.202;6.774;2023-01-24T15:08:11;2.40;;;1.27;;
29774;SDS011;16676;51.202;6.774;2023-01-24T15:12:24;2.03;;;1.30;;
29774;SDS011;16676;51.202;6.774;2023-01-24T15:16:32;1.58;;;1.20;;
29774;SDS011;16676;51.202;6.774;2023-01-24T15:20:35;1.58;;;1.40;;
29774;SDS011;16676;51.202;6.774;2023-01-24T15:24:39;1.58;;;1.38;;
29774;SDS011;16676;51.202;6.774;2023-01-24T15:28:41;1.48;;;1.30;;
29774;SDS011;16676;51.202;6.774;2023-01-24T15:32:45;1.25;;;1.10;;
29774;SDS011;16676;51.202;6.774;2023-01-24T15:36:55;1.83;;;1.17;;
29774;SDS011;16676;51.202;6.774;2023-01-24T15:41:01;1.17;;;1.08;;
29774;SDS011;16676;51.202;6.774;2023-01-24T15:45:15;1.92;;;1.10;;
29774;SDS011;16676;51.202;6.774;2023-01-24T15:49:23;2.60;;;1.30;;
29774;SDS011;16676;51.202;6.774;2023-01-24T15:53:30;1.30;;;1.00;;
29774;SDS011;16676;51.202;6.774;2023-01-24T15:57:34;1.58;;;1.10;;
29774;SDS011;16676;51.202;6.774;2023-01-24T16:01:39;1.10;;;1.00;;
29774;SDS011;16676;51.202;6.774;2023-01-24T16:05:41;1.27;;;1.05;;
29774;SDS011;16676;51.202;6.774;2023-01-24T16:09:43;2.33;;;1.08;;
29774;SDS011;16676;51.202;6.774;2023-01-24T16:13:48;1.50;;;1.40;;
29774;SDS011;16676;51.202;6.774;2023-01-24T16:17:55;2.03;;;1.13;;
29774;SDS011;16676;51.202;6.774;2023-01-24T16:21:57;1.55;;;1.10;;
29774;SDS011;16676;51.202;6.774;2023-01-24T16:25:59;2.83;;;0.90;;
29774;SDS011;16676;51.202;6.774;2023-01-24T16:30:03;1.33;;;0.95;;
29774;SDS011;16676;51.202;6.774;2023-01-24T16:34:05;1.30;;;0.95;;
29774;SDS011;16676;51.202;6.774;2023-01-24T16:38:08;1.42;;;1.20;;
29774;SDS011;16676;51.202;6.774;2023-01-24T16:42:12;2.35;;;1.13;;
29774;SDS011;16676;51.202;6.774;2023-01-24T16:46:18;1.10;;;0.98;;
29774;SDS011;16676;51.202;6.774;2023-01-24T16:50:20;3.03;;;1.10;;
29774;SDS011;16676;51.202;6.774;2023-01-24T16:54:23;2.33;;;1.30;;
29774;SDS011;16676;51.202;6.774;2023-01-24T16:58:25;1.20;;;1.00;;
29774;SDS011;16676;51.202;6.774;2023-01-24T17:02:28;1.50;;;1.20;;
29774;SDS011;16676;51.202;6.774;2023-01-24T17:06:50;1.20;;;1.10;;
29774;SDS011;16676;51.202;6.774;2023-01-24T17:11:04;1.27;;;1.08;;
29774;SDS011;16676;51.202;6.774;2023-01-24T17:15:07;1.45;;;1.10;;
29774;SDS011;16676;51.202;6.774;2023-01-24T17:19:11;1.40;;;1.10;;
29774;SDS011;16676;51.202;6.774;2023-01-24T17:23:33;2.38;;;1.27;;
29774;SDS011;16676;51.202;6.774;2023-01-24T17:27:36;1.05;;;0.88;;
29774;SDS011;16676;51.202;6.774;2023-01-24T17:31:38;2.10;;;1.20;;
29774;SDS011;16676;51.202;6.774;2023-01-24T17:35:42;1.50;;;1.20;;
29774;SDS011;16676;51.202;6.774;2023-01-24T17:40:04;1.25;;;0.93;;
29774;SDS011;16676;51.202;6.774;2023-01-24T17:44:12;1.20;;;1.10;;
29774;SDS011;16676;51.202;6.774;2023-01-24T17:48:26;1.80;;;1.30;;
29774;SDS011;16676;51.202;6.774;2023-01-24T17:52:47;1.00;;;0.90;;
29774;SDS011;16676;51.202;6.774;2023-01-24T17:57:08;2.50;;;1.38;;
29774;SDS011;16676;51.202;6.774;2023-01-24T18:01:20;2.95;;;1.15;;
29774;SDS011;16676;51.202;6.774;2023-01-24T18:05:22;1.70;;;0.90;;
29774;SDS011;16676;51.202;6.774;2023-01-24T18:09:25;1.42;;;1.17;;
29774;SDS011;16676;51.202;6.774;2023-01-24T18:13:27;1.33;;;1.23;;
29774;SDS011;16676;51.202;6.774;2023-01-24T18:17:29;2.42;;;1.23;;
29774;SDS011;16676;51.202;6.774;2023-01-24T18:21:31;1.40;;;1.25;;
29774;SDS011;16676;51.202;6.774;2023-01-24T18:25:34;2.35;;;1.20;;
29774;SDS011;16676;51.202;6.774;2023-01-24T18:29:37;0.82;;;0.82;;
29774;SDS011;16676;51.202;6.774;2023-01-24T18:33:42;1.15;;;1.05;;
29774;SDS011;16676;51.202;6.774;2023-01-24T18:37:44;1.30;;;1.20;;
29774;SDS011;16676;51.202;6.774;2023-01-24T18:41:47;1.02;;;0.93;;
29774;SDS011;16676;51.202;6.774;2023-01-24T18:45:49;2.33;;;1.27;;
29774;SDS011;16676;51.202;6.774;2023-01-24T18:49:51;2.25;;;1.38;;
29774;SDS011;16676;51.202;6.774;2023-01-24T18:53:53;1.42;;;0.93;;
29774;SDS011;16676;51.202;6.774;2023-01-24T18:57:56;1.17;;;1.08;;
29774;SDS011;16676;51.202;6.774;2023-01-24T19:01:58;1.30;;;1.20;;
29774;SDS011;16676;51.202;6.774;2023-01-24T19:06:04;1.60;;;1.20;;
29774;SDS011;16676;51.202;6.774;2023-01-24T19:10:07;1.67;;;1.15;;
29774;SDS011;16676;51.202;6.774;2023-01-24T19:14:12;2.42;;;1.40;;
29774;SDS011;16676;51.202;6.774;2023-01-24T19:18:14;1.50;;;1.10;;
29774;SDS011;16676;51.202;6.774;2023-01-24T19:22:17;1.75;;;1.33;;
29774;SDS011;16676;51.202;6.774;2023-01-24T19:26:19;1.58;;;1.08;;
29774;SDS011;16676;51.202;6.774;2023-01-24T19:30:22;1.42;;;1.25;;
29774;SDS011;16676;51.202;6.774;2023-01-24T19:34:24;1.40;;;1.23;;
29774;SDS011;16676;51.202;6.774;2023-01-24T19:38:26;1.27;;;1.17;;
29774;SDS011;16676;51.202;6.774;2023-01-24T19:42:28;2.00;;;1.50;;
29774;SDS011;16676;51.202;6.774;2023-01-24T19:46:31;1.77;;;1.15;;
29774;SDS011;16676;51.202;6.774;2023-01-24T19:50:33;2.20;;;1.40;;
29774;SDS011;16676;51.202;6.774;2023-01-24T19:54:35;1.50;;;1.30;;
29774;SDS011;16676;51.202;6.774;2023-01-24T19:58:37;1.60;;;1.30;;
29774;SDS011;16676;51.202;6.774;2023-01-24T20:02:44;2.20;;;1.35;;
29774;SDS011;16676;51.202;6.774;2023-01-24T20:06:46;1.33;;;1.20;;
29774;SDS011;16676;51.202;6.774;2023-01-24T20:10:48;1.73;;;1.23;;
29774;SDS011;16676;51.202;6.774;2023-01-24T20:14:50;1.60;;;1.20;;
29774;SDS011;16676;51.202;6.774;2023-01-24T20:18:54;1.88;;;1.10;;
29774;SDS011;16676;51.202;6.774;2023-01-24T20:22:58;1.23;;;1.02;;
29774;SDS011;16676;51.202;6.774;2023-01-24T20:27:00;1.92;;;1.48;;
29774;SDS011;16676;51.202;6.774;2023-01-24T20:31:02;1.35;;;1.13;;
29774;SDS011;16676;51.202;6.774;2023-01-24T20:35:08;1.90;;;1.30;;
29774;SDS011;16676;51.202;6.774;2023-01-24T20:39:10;1.52;;;1.25;;
29774;SDS011;16676;51.202;6.774;2023-01-24T20:43:12;1.73;;;1.40;;
29774;SDS011;16676;51.202;6.774;2023-01-24T20:47:14;1.27;;;1.13;;
29774;SDS011;16676;51.202;6.774;2023-01-24T20:51:18;1.77;;;1.38;;
29774;SDS011;16676;51.202;6.774;2023-01-24T20:55:20;1.40;;;1.30;;
29774;SDS011;16676;51.202;6.774;2023-01-24T20:59:22;1.45;;;1.30;;
29774;SDS011;16676;51.202;6.774;2023-01-24T21:03:24;1.08;;;0.95;;
29774;SDS011;16676;51.202;6.774;2023-01-24T21:07:27;1.40;;;1.10;;
29774;SDS011;16676;51.202;6.774;2023-01-24T21:11:30;1.48;;;1.27;;
29774;SDS011;16676;51.202;6.774;2023-01-24T21:15:33;2.40;;;1.20;;
29774;SDS011;16676;51.202;6.774;2023-01-24T21:19:35;2.08;;;1.13;;
29774;SDS011;16676;51.202;6.774;2023-01-24T21:23:43;2.07;;;1.10;;
29774;SDS011;16676;51.202;6.774;2023-01-24T21:27:48;1.38;;;1.20;;
29774;SDS011;16676;51.202;6.774;2023-01-24T21:31:50;3.60;;;1.33;;
29774;SDS011;16676;51.202;6.774;2023-01-24T21:36:02;2.38;;;1.30;;
29774;SDS011;16676;51.202;6.774;2023-01-24T21:40:08;1.50;;;1.13;;
29774;SDS011;16676;51.202;6.774;2023-01-24T21:44:10;2.00;;;1.35;;
29774;SDS011;16676;51.202;6.774;2023-01-24T21:48:12;1.30;;;1.20;;
29774;SDS011;16676;51.202;6.774;2023-01-24T21:52:14;1.75;;;1.20;;
29774;SDS011;16676;51.202;6.774;2023-01-24T21:56:18;1.30;;;1.20;;
29774;SDS011;16676;51.202;6.774;2023-01-24T22:00:37;1.33;;;1.17;;
29774;SDS011;16676;51.202;6.774;2023-01-24T22:04:39;1.45;;;1.10;;
29774;SDS011;16676;51.202;6.774;2023-01-24T22:08:42;1.55;;;1.35;;
29774;SDS011;16676;51.202;6.774;2023-01-24T22:12:45;1.85;;;1.30;;
29774;SDS011;16676;51.202;6.774;2023-01-24T22:16:48;1.70;;;1.25;;
29774;SDS011;16676;51.202;6.774;2023-01-24T22:20:52;1.88;;;1.17;;
29774;SDS011;16676;51.202;6.774;2023-01-24T22:24:59;1.00;;;0.90;;
29774;SDS011;16676;51.202;6.774;2023-01-24T22:29:09;1.60;;;1.27;;
29774;SDS011;16676;51.202;6.774;2023-01-24T22:33:12;1.33;;;1.10;;
29774;SDS011;16676;51.202;6.774;2023-01-24T22:37:17;1.92;;;1.30;;
29774;SDS011;16676;51.202;6.774;2023-01-24T22:41:24;1.52;;;1.23;;
29774;SDS011;16676;51.202;6.774;2023-01-24T22:45:28;2.45;;;1.63;;
29774;SDS011;16676;51.202;6.774;2023-01-24T22:49:30;2.92;;;1.63;;
29774;SDS011;16676;51.202;6.774;2023-01-24T22:53:35;1.55;;;1.08;;
29774;SDS011;16676;51.202;6.774;2023-01-24T22:57:37;2.67;;;1.38;;
29774;SDS011;16676;51.202;6.774;2023-01-24T23:01:40;2.15;;;1.50;;
29774;SDS011;16676;51.202;6.774;2023-01-24T23:05:42;1.80;;;1.40;;
29774;SDS011;16676;51.202;6.774;2023-01-24T23:09:44;1.90;;;1.20;;
29774;SDS011;16676;51.202;6.774;2023-01-24T23:13:46;1.42;;;1.20;;
29774;SDS011;16676;51.202;6.774;2023-01-24T23:18:13;1.48;;;1.30;;
29774;SDS011;16676;51.202;6.774;2023-01-24T23:22:19;1.13;;;1.00;;
29774;SDS011;16676;51.202;6.774;2023-01-24T23:26:21;1.90;;;1.35;;
29774;SDS011;16676;51.202;6.774;2023-01-24T23:30:30;2.55;;;1.30;;
29774;SDS011;16676;51.202;6.774;2023-01-24T23:34:43;2.50;;;1.38;;
29774;SDS011;16676;51.202;6.774;2023-01-24T23:38:46;1.95;;;1.10;;
29774;SDS011;16676;51.202;6.774;2023-01-24T23:42:48;1.92;;;1.27;;
29774;SDS011;16676;51.202;6.774;2023-01-24T23:46:50;1.27;;;1.15;;
29774;SDS011;16676;51.202;6.774;2023-01-24T23:50:54;1.60;;;1.20;;
29774;SDS011;16676;51.202;6.774;2023-01-24T23:54:56;1.30;;;1.13;;
29774;SDS011;16676;51.202;6.774;2023-01-24T23:58:58;1.75;;;1.15;;
